createdAt,value
2019-01-29T00:00:36.793Z,42.37
2019-01-29T00:03:09.365Z,43.90
2019-01-29T00:05:41.378Z,40.67
2019-01-29T00:08:13.229Z,50.50
2019-01-29T00:10:46.148Z,58.87
2019-01-29T00:13:18.289Z,50.47
2019-01-29T00:15:50.216Z,43.20
2019-01-29T00:18:22.048Z,47.93
2019-01-29T00:20:54.568Z,50.60
2019-01-29T00:23:26.632Z,49.77
2019-01-29T00:25:58.678Z,47.03
2019-01-29T00:28:31.154Z,52.63
2019-01-29T00:31:03.395Z,52.33
2019-01-29T00:33:36.724Z,52.37
2019-01-29T00:36:08.555Z,50.20
2019-01-29T00:38:40.602Z,41.63
2019-01-29T00:41:13.073Z,43.90
2019-01-29T00:43:45.556Z,54.10
2019-01-29T00:46:17.596Z,61.27
2019-01-29T00:48:50.149Z,63.17
2019-01-29T00:51:21.972Z,57.00
2019-01-29T00:53:54.067Z,80.53
2019-01-29T00:56:26.708Z,80.27
2019-01-29T00:58:58.781Z,63.87
2019-01-29T01:01:30.772Z,70.97
2019-01-29T01:04:02.475Z,84.10
2019-01-29T01:06:35.061Z,52.93
2019-01-29T01:09:09.205Z,61.93
2019-01-29T01:11:41.427Z,70.80
2019-01-29T01:14:13.449Z,49.17
2019-01-29T01:16:45.310Z,60.73
2019-01-29T01:19:17.420Z,47.93
2019-01-29T01:21:49.268Z,67.40
2019-01-29T01:24:21.004Z,58.03
2019-01-29T01:26:53.586Z,58.70
2019-01-29T01:29:25.757Z,54.33
2019-01-29T01:31:59.361Z,73.80
2019-01-29T01:34:31.480Z,65.87
2019-01-29T01:37:03.330Z,44.93
2019-01-29T01:39:35.208Z,29.73
2019-01-29T01:42:07.344Z,24.67
2019-01-29T01:44:40.270Z,22.63
2019-01-29T01:47:12.236Z,25.27
2019-01-29T01:49:44.330Z,22.77
2019-01-29T01:52:16.451Z,26.60
2019-01-29T01:54:48.295Z,24.40
2019-01-29T01:57:20.552Z,23.23
2019-01-29T01:59:52.579Z,27.47
2019-01-29T02:02:24.326Z,22.83
2019-01-29T02:04:56.581Z,19.77
2019-01-29T02:07:28.731Z,41.63
2019-01-29T02:10:01.655Z,32.13
2019-01-29T02:12:33.485Z,28.77
2019-01-29T02:15:07.273Z,36.70
2019-01-29T02:17:39.232Z,22.87
2019-01-29T02:20:16.945Z,23.13
2019-01-29T02:22:49.246Z,29.93
2019-01-29T02:25:21.199Z,19.30
2019-01-29T02:27:53.335Z,14.83
2019-01-29T02:30:26.173Z,18.77
2019-01-29T02:32:58.711Z,20.03
2019-01-29T02:35:31.469Z,17.23
2019-01-29T02:38:04.201Z,16.30
2019-01-29T02:40:37.024Z,18.03
2019-01-29T02:43:09.566Z,27.83
2019-01-29T02:45:41.696Z,13.93
2019-01-29T02:48:14.437Z,14.20
2019-01-29T02:50:46.725Z,20.20
2019-01-29T02:53:20.987Z,22.77
2019-01-29T02:55:53.275Z,23.43
2019-01-29T02:58:25.056Z,22.07
2019-01-29T03:00:56.862Z,18.40
2019-01-29T03:03:28.723Z,17.47
2019-01-29T03:06:00.788Z,16.03
2019-01-29T03:08:32.519Z,29.37
2019-01-29T03:11:04.559Z,23.53
2019-01-29T03:13:36.486Z,19.90
2019-01-29T03:16:08.493Z,24.23
2019-01-29T03:18:40.773Z,14.80
2019-01-29T03:21:13.073Z,15.17
2019-01-29T03:23:44.763Z,24.03
2019-01-29T03:26:17.679Z,17.67
2019-01-29T03:28:49.813Z,16.60
2019-01-29T03:31:22.241Z,11.73
2019-01-29T03:33:54.203Z,21.00
2019-01-29T03:36:26.762Z,12.97
2019-01-29T03:38:58.575Z,14.93
2019-01-29T03:41:30.587Z,13.10
2019-01-29T03:44:02.306Z,23.73
2019-01-29T03:46:34.315Z,24.40
2019-01-29T03:49:06.716Z,15.63
2019-01-29T03:51:38.354Z,15.37
2019-01-29T03:54:11.181Z,10.60
2019-01-29T03:56:43.050Z,13.10
2019-01-29T03:59:14.696Z,9.60
2019-01-29T04:01:47.180Z,14.93
2019-01-29T04:04:19.015Z,10.87
2019-01-29T04:06:51.145Z,9.43
2019-01-29T04:09:25.048Z,9.67
2019-01-29T04:11:56.335Z,8.83
2019-01-29T04:14:30.444Z,9.90
2019-01-29T04:17:06.012Z,11.30
2019-01-29T04:19:40.752Z,11.63
2019-01-29T04:22:16.255Z,13.87
2019-01-29T04:24:50.332Z,9.27
2019-01-29T04:27:24.131Z,33.63
2019-01-29T04:29:59.286Z,25.53
2019-01-29T04:32:32.410Z,30.63
2019-01-29T04:35:04.521Z,26.53
2019-01-29T04:37:36.670Z,25.37
2019-01-29T04:40:14.191Z,40.70
2019-01-29T04:42:46.478Z,32.47
2019-01-29T04:45:19.171Z,25.73
2019-01-29T04:47:51.374Z,55.00
2019-01-29T04:50:23.702Z,24.33
2019-01-29T04:52:55.399Z,50.67
2019-01-29T04:55:27.381Z,31.77
2019-01-29T04:57:59.382Z,19.13
2019-01-29T05:00:31.073Z,30.07
2019-01-29T05:03:02.964Z,29.73
2019-01-29T05:05:34.677Z,31.30
2019-01-29T05:08:06.821Z,24.97
2019-01-29T05:10:38.727Z,25.37
2019-01-29T05:13:10.527Z,23.10
2019-01-29T05:15:42.485Z,30.90
2019-01-29T05:18:14.123Z,29.17
2019-01-29T05:20:45.804Z,25.17
2019-01-29T05:23:17.452Z,23.60
2019-01-29T05:25:49.039Z,22.03
2019-01-29T05:28:20.859Z,21.77
2019-01-29T05:30:54.080Z,19.00
2019-01-29T05:33:26.268Z,20.57
2019-01-29T05:35:58.404Z,35.87
2019-01-29T05:38:30.761Z,23.97
2019-01-29T05:41:03.165Z,17.50
2019-01-29T05:43:35.179Z,12.87
2019-01-29T05:46:07.509Z,18.73
2019-01-29T05:48:39.371Z,18.30
2019-01-29T05:51:11.035Z,20.73
2019-01-29T05:53:42.742Z,19.20
2019-01-29T05:56:14.450Z,19.63
2019-01-29T05:58:46.688Z,17.07
2019-01-29T06:01:18.999Z,16.57
2019-01-29T06:03:50.642Z,13.33
2019-01-29T06:06:22.413Z,18.33
2019-01-29T06:08:54.179Z,30.50
2019-01-29T06:11:26.291Z,22.37
2019-01-29T06:13:57.986Z,22.93
2019-01-29T06:16:30.584Z,23.50
2019-01-29T06:19:02.325Z,35.77
2019-01-29T06:21:34.121Z,40.77
2019-01-29T06:24:06.389Z,36.80
2019-01-29T06:26:39.699Z,25.53
2019-01-29T06:29:11.907Z,26.07
2019-01-29T06:31:43.772Z,28.70
2019-01-29T06:34:15.419Z,23.27
2019-01-29T06:36:47.133Z,27.20
2019-01-29T06:39:19.113Z,30.30
2019-01-29T06:41:50.732Z,32.70
2019-01-29T06:44:23.202Z,47.27
2019-01-29T06:46:54.916Z,57.87
2019-01-29T06:49:27.141Z,82.80
2019-01-29T06:51:59.069Z,72.93
2019-01-29T06:54:34.187Z,52.10
2019-01-29T06:57:04.028Z,47.80
2019-01-29T06:59:36.141Z,44.87
2019-01-29T07:02:08.754Z,39.70
2019-01-29T07:04:40.382Z,37.90
2019-01-29T07:07:12.180Z,31.43
2019-01-29T07:09:44.339Z,38.70
2019-01-29T07:12:16.208Z,32.83
2019-01-29T07:14:48.090Z,39.10
2019-01-29T07:17:21.071Z,35.73
2019-01-29T07:19:52.985Z,30.00
2019-01-29T07:22:24.948Z,29.30
2019-01-29T07:24:56.607Z,29.80
2019-01-29T07:27:28.255Z,32.53
2019-01-29T07:30:00.196Z,25.90
2019-01-29T07:32:32.004Z,21.83
2019-01-29T07:35:04.009Z,20.37
2019-01-29T07:37:35.861Z,21.50
2019-01-29T07:40:10.075Z,19.13
2019-01-29T07:42:41.861Z,19.53
2019-01-29T07:45:15.102Z,18.43
2019-01-29T07:47:46.830Z,19.67
2019-01-29T07:50:18.444Z,14.60
2019-01-29T07:52:50.168Z,12.40
2019-01-29T07:55:21.802Z,16.30
2019-01-29T07:57:53.440Z,12.37
2019-01-29T08:00:25.544Z,13.40
2019-01-29T08:02:57.261Z,11.13
2019-01-29T08:05:29.454Z,11.37
2019-01-29T08:08:01.258Z,21.17
2019-01-29T08:10:33.344Z,15.07
2019-01-29T08:13:05.746Z,18.13
2019-01-29T08:15:38.489Z,21.17
2019-01-29T08:18:10.518Z,18.13
2019-01-29T08:20:42.155Z,18.13
2019-01-29T08:23:14.138Z,24.40
2019-01-29T08:25:47.970Z,22.37
2019-01-29T08:28:19.208Z,20.77
2019-01-29T08:30:50.783Z,18.77
2019-01-29T08:33:24.123Z,22.43
2019-01-29T08:35:55.868Z,24.33
2019-01-29T08:38:27.624Z,22.43
2019-01-29T08:41:00.240Z,29.60
2019-01-29T08:43:32.228Z,31.63
2019-01-29T08:46:04.164Z,33.40
2019-01-29T08:48:35.799Z,37.43
2019-01-29T08:51:07.481Z,33.23
2019-01-29T08:53:39.262Z,37.83
2019-01-29T08:56:10.999Z,38.23
2019-01-29T08:58:42.654Z,41.57
2019-01-29T09:01:14.399Z,48.93
2019-01-29T09:03:46.055Z,28.10
2019-01-29T09:06:18.053Z,37.33
2019-01-29T09:08:49.922Z,29.43
2019-01-29T09:11:21.546Z,32.90
2019-01-29T09:13:54.595Z,24.70
2019-01-29T09:16:27.516Z,28.20
2019-01-29T09:18:59.737Z,19.03
2019-01-29T09:21:31.381Z,22.47
2019-01-29T09:24:03.647Z,26.37
2019-01-29T09:26:35.303Z,25.23
2019-01-29T09:29:07.276Z,24.77
2019-01-29T09:31:39.040Z,24.57
2019-01-29T09:34:10.712Z,27.10
2019-01-29T09:36:42.346Z,26.83
2019-01-29T09:39:14.133Z,25.23
2019-01-29T09:41:46.369Z,29.60
2019-01-29T09:44:18.637Z,31.30
2019-01-29T09:46:50.872Z,40.23
2019-01-29T09:49:22.584Z,39.10
2019-01-29T09:51:54.281Z,40.60
2019-01-29T09:54:26.095Z,42.97
2019-01-29T09:56:57.803Z,44.57
2019-01-29T09:59:29.488Z,47.27
2019-01-29T10:02:01.182Z,40.83
2019-01-29T10:04:32.837Z,36.53
2019-01-29T10:07:04.478Z,30.30
2019-01-29T10:09:36.109Z,36.33
2019-01-29T10:12:08.404Z,37.03
2019-01-29T10:14:40.617Z,46.83
2019-01-29T10:17:13.079Z,46.13
2019-01-29T10:19:44.996Z,51.13
2019-01-29T10:22:16.680Z,66.17
2019-01-29T10:24:48.255Z,57.20
2019-01-29T10:27:19.971Z,54.10
2019-01-29T10:29:51.550Z,57.70
2019-01-29T10:32:23.798Z,51.50
2019-01-29T10:34:55.460Z,62.87
2019-01-29T10:37:27.566Z,63.20
2019-01-29T10:39:59.303Z,62.50
2019-01-29T10:42:30.882Z,71.30
2019-01-29T10:45:02.678Z,68.53
2019-01-29T10:47:34.555Z,69.73
2019-01-29T10:50:11.946Z,65.97
2019-01-29T10:52:44.836Z,59.70
2019-01-29T10:55:16.744Z,61.40
2019-01-29T10:57:48.545Z,62.90
2019-01-29T11:00:26.172Z,68.50
2019-01-29T11:02:57.756Z,71.37
2019-01-29T11:05:29.536Z,88.37
2019-01-29T11:08:01.822Z,64.53
2019-01-29T11:10:34.038Z,63.43
2019-01-29T11:13:07.397Z,68.97
2019-01-29T11:15:43.285Z,74.20
2019-01-29T11:18:16.496Z,76.10
2019-01-29T11:20:48.609Z,74.97
2019-01-29T11:23:20.275Z,67.13
2019-01-29T11:25:56.004Z,55.17
2019-01-29T11:28:25.819Z,54.47
2019-01-29T11:30:57.651Z,62.37
2019-01-29T11:33:29.341Z,74.37
2019-01-29T11:36:01.150Z,66.50
2019-01-29T11:38:33.141Z,80.17
2019-01-29T11:41:04.821Z,74.87
2019-01-29T11:43:36.631Z,72.70
2019-01-29T11:46:08.614Z,78.43
2019-01-29T11:48:40.720Z,73.37
2019-01-29T11:51:12.600Z,82.43
2019-01-29T11:53:44.252Z,66.77
2019-01-29T11:56:15.971Z,71.00
2019-01-29T11:58:48.020Z,56.57
2019-01-29T12:01:19.633Z,65.60
2019-01-29T12:03:51.277Z,51.37
2019-01-29T12:06:23.116Z,52.53
2019-01-29T12:08:55.074Z,60.17
2019-01-29T12:11:26.682Z,48.43
2019-01-29T12:13:58.989Z,55.47
2019-01-29T12:16:30.918Z,62.63
2019-01-29T12:19:02.949Z,46.27
2019-01-29T12:21:34.672Z,58.17
2019-01-29T12:24:06.823Z,55.70
2019-01-29T12:26:38.656Z,65.43
2019-01-29T12:29:10.341Z,78.13
2019-01-29T12:31:42.716Z,71.33
2019-01-29T12:34:14.738Z,72.33
2019-01-29T12:36:46.441Z,71.60
2019-01-29T12:39:18.173Z,52.63
2019-01-29T12:41:50.681Z,51.27
2019-01-29T12:44:22.956Z,61.03
2019-01-29T12:46:54.697Z,52.17
2019-01-29T12:49:26.455Z,60.80
2019-01-29T12:51:59.680Z,61.37
2019-01-29T12:54:31.417Z,54.70
2019-01-29T12:57:03.062Z,55.13
2019-01-29T12:59:35.264Z,55.63
2019-01-29T13:02:07.057Z,59.67
2019-01-29T13:04:38.766Z,65.57
2019-01-29T13:07:10.889Z,48.70
2019-01-29T13:09:42.559Z,50.17
2019-01-29T13:12:14.701Z,47.73
2019-01-29T13:14:46.959Z,42.93
2019-01-29T13:17:19.127Z,54.33
2019-01-29T13:19:51.187Z,47.97
2019-01-29T13:22:22.838Z,49.53
2019-01-29T13:24:54.583Z,34.93
2019-01-29T13:27:26.454Z,32.57
2019-01-29T13:29:58.713Z,32.83
2019-01-29T13:32:30.711Z,33.53
2019-01-29T13:35:02.344Z,43.37
2019-01-29T13:37:36.783Z,37.17
2019-01-29T13:40:11.006Z,35.53
2019-01-29T13:42:42.871Z,33.30
2019-01-29T13:45:16.826Z,33.87
2019-01-29T13:47:49.571Z,39.33
2019-01-29T13:50:25.624Z,40.20
2019-01-29T13:52:57.459Z,30.43
2019-01-29T13:55:29.069Z,24.07
2019-01-29T13:58:01.731Z,31.50
2019-01-29T14:00:38.406Z,27.37
2019-01-29T14:03:12.531Z,37.13
2019-01-29T14:05:44.187Z,45.23
2019-01-29T14:08:15.891Z,40.00
2019-01-29T14:10:47.573Z,30.20
2019-01-29T14:13:19.607Z,32.33
2019-01-29T14:15:55.600Z,27.87
2019-01-29T14:18:27.409Z,33.90
2019-01-29T14:21:00.226Z,25.63
2019-01-29T14:23:32.241Z,27.63
2019-01-29T14:26:04.098Z,30.83
2019-01-29T14:28:36.639Z,28.63
2019-01-29T14:31:09.139Z,29.87
2019-01-29T14:33:41.069Z,23.17
2019-01-29T14:36:16.946Z,31.23
2019-01-29T14:39:11.555Z,31.57
2019-01-29T14:41:43.695Z,21.97
2019-01-29T14:44:15.687Z,19.10
2019-01-29T14:46:47.405Z,21.90
2019-01-29T14:49:19.212Z,19.67
2019-01-29T14:51:51.446Z,19.03
2019-01-29T14:54:28.147Z,30.17
2019-01-29T14:57:05.619Z,37.27
2019-01-29T14:59:49.434Z,23.23
2019-01-29T15:02:26.814Z,26.23
2019-01-29T15:05:01.591Z,19.80
2019-01-29T15:10:54.762Z,19.03
2019-01-29T15:13:41.846Z,17.17
2019-01-29T15:16:30.967Z,16.90
2019-01-29T15:19:10.718Z,23.60
2019-01-29T15:21:45.941Z,17.63
2019-01-29T15:24:24.873Z,17.10
2019-01-29T15:27:05.822Z,13.03
2019-01-29T15:29:39.820Z,13.37
2019-01-29T15:32:13.295Z,20.90
2019-01-29T15:34:46.215Z,20.30
2019-01-29T15:37:20.455Z,17.57
2019-01-29T15:39:54.073Z,14.50
2019-01-29T15:42:27.806Z,16.13
2019-01-29T15:44:59.817Z,16.03
2019-01-29T15:47:31.815Z,19.70
2019-01-29T15:50:03.686Z,17.77
2019-01-29T15:52:35.880Z,15.07
2019-01-29T15:55:10.476Z,12.05
2019-01-29T15:57:42.192Z,17.40
2019-01-29T16:00:23.852Z,11.97
2019-01-29T16:02:56.561Z,15.23
2019-01-29T16:05:36.953Z,18.75
2019-01-29T16:08:18.761Z,20.15
2019-01-29T16:10:52.579Z,22.17
2019-01-29T16:13:24.704Z,14.50
2019-01-29T16:15:56.459Z,17.37
2019-01-29T16:18:28.499Z,18.87
2019-01-29T16:21:00.184Z,19.55
2019-01-29T16:23:32.191Z,34.88
2019-01-29T16:26:04.141Z,18.40
2019-01-29T16:28:35.813Z,25.88
2019-01-29T16:31:07.675Z,19.30
2019-01-29T16:33:39.407Z,18.60
2019-01-29T16:36:12.291Z,20.82
2019-01-29T16:38:44.662Z,27.48
2019-01-29T16:41:16.373Z,19.75
2019-01-29T16:43:48.799Z,24.77
2019-01-29T16:46:20.660Z,38.70
2019-01-29T16:48:56.744Z,17.48
2019-01-29T16:51:29.349Z,21.17
2019-01-29T16:54:01.707Z,27.42
2019-01-29T16:56:34.207Z,25.12
2019-01-29T16:59:06.041Z,23.62
2019-01-29T17:01:37.968Z,22.67
2019-01-29T17:04:10.468Z,23.62
2019-01-29T17:06:42.572Z,22.70
2019-01-29T17:09:14.691Z,29.82
2019-01-29T17:11:47.218Z,25.68
2019-01-29T17:14:19.071Z,23.38
2019-01-29T17:16:51.030Z,18.52
2019-01-29T17:19:23.313Z,21.27
2019-01-29T17:21:55.364Z,16.23
2019-01-29T17:24:28.084Z,20.82
2019-01-29T17:26:59.826Z,19.25
2019-01-29T17:29:31.414Z,24.23
2019-01-29T17:32:03.375Z,19.00
2019-01-29T17:34:35.421Z,28.70
2019-01-29T17:37:07.308Z,18.07
2019-01-29T17:39:39.667Z,20.80
2019-01-29T17:42:12.357Z,12.80
2019-01-29T17:44:44.367Z,18.80
2019-01-29T17:47:15.991Z,16.00
2019-01-29T17:49:47.800Z,12.15
2019-01-29T17:52:19.452Z,16.40
2019-01-29T17:54:51.265Z,12.13
2019-01-29T17:57:23.010Z,11.73
2019-01-29T17:59:55.110Z,10.50
2019-01-29T18:02:26.926Z,9.75
2019-01-29T18:05:07.157Z,6.97
2019-01-29T18:07:41.452Z,16.15
2019-01-29T18:10:19.644Z,9.80
2019-01-29T18:12:54.921Z,12.95
2019-01-29T18:15:31.477Z,8.20
2019-01-29T18:18:03.217Z,12.18
2019-01-29T18:20:36.383Z,10.55
2019-01-29T18:23:08.083Z,7.58
2019-01-29T18:25:40.302Z,10.82
2019-01-29T18:28:12.056Z,11.43
2019-01-29T18:30:44.128Z,20.05
2019-01-29T18:33:16.040Z,16.73
2019-01-29T18:35:48.425Z,9.25
2019-01-29T18:38:20.086Z,9.58
2019-01-29T18:40:53.748Z,11.85
2019-01-29T18:43:26.335Z,7.42
2019-01-29T18:45:58.834Z,8.00
2019-01-29T18:48:30.635Z,7.17
2019-01-29T18:51:02.224Z,8.33
2019-01-29T18:53:34.128Z,9.73
2019-01-29T18:56:07.912Z,10.43
2019-01-29T19:01:32.327Z,9.78
2019-01-29T19:04:03.932Z,6.85
2019-01-29T19:06:35.700Z,6.08
2019-01-29T19:09:09.103Z,9.00
2019-01-29T19:11:41.299Z,13.10
2019-01-29T19:14:13.174Z,8.33
2019-01-29T19:16:44.875Z,8.45
2019-01-29T19:19:20.981Z,8.08
2019-01-29T19:21:53.266Z,8.23
2019-01-29T19:24:25.267Z,8.78
2019-01-29T19:26:59.200Z,33.73
2019-01-29T19:29:30.939Z,11.05
2019-01-29T19:32:02.766Z,10.78
2019-01-29T19:34:34.361Z,7.87
2019-01-29T19:37:06.395Z,9.45
2019-01-29T19:39:38.237Z,9.58
2019-01-29T19:42:09.980Z,4.95
2019-01-29T19:44:41.820Z,8.48
2019-01-29T19:47:13.903Z,9.20
2019-01-29T19:49:47.667Z,7.70
2019-01-29T19:52:21.828Z,11.83
2019-01-29T19:54:55.160Z,5.80
2019-01-29T19:57:26.830Z,6.62
2019-01-29T19:59:59.041Z,8.28
2019-01-29T20:02:31.280Z,7.53
2019-01-29T20:05:08.987Z,6.80
2019-01-29T20:07:45.226Z,8.13
2019-01-29T20:10:19.271Z,12.33
2019-01-29T20:12:53.454Z,7.67
2019-01-29T20:15:27.000Z,10.43
2019-01-29T20:18:00.868Z,7.05
2019-01-29T20:20:35.283Z,8.20
2019-01-29T20:23:08.386Z,8.70
2019-01-29T20:25:40.627Z,8.53
2019-01-29T20:28:14.038Z,10.65
2019-01-29T20:30:45.348Z,6.30
2019-01-29T20:33:25.778Z,8.40
2019-01-29T20:35:57.940Z,9.63
2019-01-29T20:38:35.120Z,8.35
2019-01-29T20:41:03.204Z,9.70
2019-01-29T20:43:34.895Z,11.15
2019-01-29T20:46:06.871Z,9.35
2019-01-29T20:48:38.737Z,7.85
2019-01-29T20:51:10.656Z,11.75
2019-01-29T20:53:42.591Z,15.30
2019-01-29T20:56:21.077Z,13.40
2019-01-29T20:58:59.116Z,9.18
2019-01-29T21:01:33.458Z,8.70
2019-01-29T21:04:08.455Z,8.48
2019-01-29T21:06:43.812Z,9.45
2019-01-29T21:09:18.779Z,14.18
2019-01-29T21:11:51.793Z,8.65
2019-01-29T21:14:24.192Z,11.03
2019-01-29T21:16:56.508Z,8.23
2019-01-29T21:19:28.908Z,11.68
2019-01-29T21:22:01.571Z,13.53
2019-01-29T21:24:33.387Z,14.60
2019-01-29T21:27:07.459Z,14.70
2019-01-29T21:29:41.942Z,11.43
2019-01-29T21:32:17.523Z,12.40
2019-01-29T21:34:52.409Z,16.12
2019-01-29T21:37:24.957Z,10.05
2019-01-29T21:39:56.578Z,14.98
2019-01-29T21:42:28.602Z,12.68
2019-01-29T21:45:00.308Z,12.63
2019-01-29T21:47:32.069Z,12.30
2019-01-29T21:50:11.261Z,16.50
2019-01-29T21:52:36.936Z,10.43
2019-01-29T21:55:11.951Z,10.23
2019-01-29T21:57:43.985Z,12.78
2019-01-29T22:00:30.240Z,11.93
2019-01-29T22:03:02.161Z,15.25
2019-01-29T22:05:33.786Z,11.48
2019-01-29T22:08:05.800Z,12.50
2019-01-29T22:10:37.680Z,11.15
2019-01-29T22:13:10.628Z,11.00
2019-01-29T22:15:42.810Z,10.63
2019-01-29T22:18:14.450Z,12.15
2019-01-29T22:20:46.956Z,16.23
2019-01-29T22:23:19.790Z,13.65
2019-01-29T22:25:51.603Z,15.48
2019-01-29T22:28:23.785Z,16.73
2019-01-29T22:30:55.494Z,14.15
2019-01-29T22:33:27.963Z,14.65
2019-01-29T22:35:59.558Z,12.88
2019-01-29T22:38:31.582Z,19.65
2019-01-29T22:41:03.776Z,15.25
2019-01-29T22:43:35.680Z,13.58
2019-01-29T22:46:07.483Z,13.85
2019-01-29T22:48:39.748Z,16.15
2019-01-29T22:51:11.594Z,16.57
2019-01-29T22:53:43.295Z,15.43
2019-01-29T22:56:15.313Z,13.93
2019-01-29T22:58:47.859Z,14.63
2019-01-29T23:01:27.940Z,8.95
2019-01-29T23:04:00.373Z,14.90
2019-01-29T23:06:49.943Z,15.27
2019-01-29T23:09:22.172Z,14.77
2019-01-29T23:11:54.347Z,10.70
2019-01-29T23:14:26.308Z,13.60
2019-01-29T23:16:58.075Z,13.00
2019-01-29T23:19:30.642Z,13.07
2019-01-29T23:22:02.593Z,10.27
2019-01-29T23:24:34.894Z,10.93
2019-01-29T23:27:08.376Z,13.70
2019-01-29T23:29:43.571Z,13.73
2019-01-29T23:32:15.493Z,14.00
2019-01-29T23:34:47.780Z,13.70
2019-01-29T23:37:19.700Z,9.40
2019-01-29T23:39:51.886Z,16.40
2019-01-29T23:42:23.555Z,14.63
2019-01-29T23:44:55.751Z,13.93
2019-01-29T23:47:27.397Z,11.07
2019-01-29T23:49:59.553Z,11.43
2019-01-29T23:52:35.781Z,11.33
2019-01-29T23:55:12.249Z,10.27
2019-01-29T23:57:47.565Z,9.77
